Terminal Aerodrome Forecast
Issued by NWS Brownsville, TX

Home | Current Version | Previous Version | Text Only | Print | Product List | Glossary On
Versions: 1 2 3 4 5 6 7 8 9 10 11 12 13 14 15 16
442
FTUS44 KBRO 261401 AAA
TAFBRO
TAF AMD
KBRO 261401Z 2614/2712 18014G23KT P6SM OVC015
     FM261500 19015G22KT P6SM SCT250
     FM261700 30010G18KT P6SM SCT250
     FM270000 01005KT P6SM SCT250
     FM270300 06009KT P6SM FEW020=

USA.gov is the U.S. government's official web portal to all federal, state and local government web resources and services.